sensor_id;sensor_type;location;lat;lon;timestamp;pressure;altitude;pressure_sealevel;temperature;humidity
34328;BME280;20588;48.840;10.064;2023-05-09T00:00:21;96823.19;;;13.08;100.00
34328;BME280;20588;48.840;10.064;2023-05-09T00:02:48;96824.63;;;13.04;100.00
34328;BME280;20588;48.840;10.064;2023-05-09T00:05:14;96823.06;;;13.03;100.00
34328;BME280;20588;48.840;10.064;2023-05-09T00:07:40;96820.84;;;13.07;100.00
34328;BME280;20588;48.840;10.064;2023-05-09T00:10:06;96819.25;;;13.06;100.00
34328;BME280;20588;48.840;10.064;2023-05-09T00:12:33;96809.06;;;13.11;100.00
34328;BME280;20588;48.840;10.064;2023-05-09T00:14:59;96809.34;;;13.03;100.00
34328;BME280;20588;48.840;10.064;2023-05-09T00:17:25;96796.06;;;13.17;100.00
34328;BME280;20588;48.840;10.064;2023-05-09T00:19:51;96804.84;;;13.28;100.00
34328;BME280;20588;48.840;10.064;2023-05-09T00:22:19;96806.53;;;13.22;100.00
34328;BME280;20588;48.840;10.064;2023-05-09T00:24:48;96805.59;;;13.17;100.00
34328;BME280;20588;48.840;10.064;2023-05-09T00:27:15;96797.53;;;13.25;100.00
34328;BME280;20588;48.840;10.064;2023-05-09T00:29:41;96797.91;;;13.28;100.00
34328;BME280;20588;48.840;10.064;2023-05-09T00:32:07;96796.28;;;13.16;100.00
34328;BME280;20588;48.840;10.064;2023-05-09T00:34:34;96787.13;;;13.13;100.00
34328;BME280;20588;48.840;10.064;2023-05-09T00:37:00;96788.81;;;13.08;100.00
34328;BME280;20588;48.840;10.064;2023-05-09T00:39:26;96786.53;;;13.00;100.00
34328;BME280;20588;48.840;10.064;2023-05-09T00:41:54;96781.53;;;12.98;100.00
34328;BME280;20588;48.840;10.064;2023-05-09T00:44:20;96783.66;;;12.90;100.00
34328;BME280;20588;48.840;10.064;2023-05-09T00:46:46;96768.28;;;12.95;100.00
34328;BME280;20588;48.840;10.064;2023-05-09T00:49:12;96765.41;;;13.03;100.00
34328;BME280;20588;48.840;10.064;2023-05-09T00:51:39;96759.97;;;13.11;100.00
34328;BME280;20588;48.840;10.064;2023-05-09T00:54:06;96756.78;;;13.09;100.00
34328;BME280;20588;48.840;10.064;2023-05-09T00:56:33;96759.50;;;13.14;100.00
34328;BME280;20588;48.840;10.064;2023-05-09T00:58:59;96755.16;;;13.14;100.00
34328;BME280;20588;48.840;10.064;2023-05-09T01:01:25;96755.88;;;13.33;100.00
34328;BME280;20588;48.840;10.064;2023-05-09T01:03:52;96750.22;;;13.24;100.00
34328;BME280;20588;48.840;10.064;2023-05-09T01:06:47;96747.31;;;13.21;100.00
34328;BME280;20588;48.840;10.064;2023-05-09T01:12:15;96740.09;;;13.11;100.00
34328;BME280;20588;48.840;10.064;2023-05-09T01:14:54;96739.66;;;12.96;100.00
34328;BME280;20588;48.840;10.064;2023-05-09T01:20:19;96730.53;;;12.94;100.00
34328;BME280;20588;48.840;10.064;2023-05-09T01:22:59;96724.81;;;12.92;100.00
34328;BME280;20588;48.840;10.064;2023-05-09T01:28:35;96723.13;;;12.86;100.00
34328;BME280;20588;48.840;10.064;2023-05-09T01:31:07;96722.22;;;13.10;100.00
34328;BME280;20588;48.840;10.064;2023-05-09T01:33:37;96724.22;;;13.08;100.00
34328;BME280;20588;48.840;10.064;2023-05-09T01:36:06;96724.06;;;13.21;99.77
34328;BME280;20588;48.840;10.064;2023-05-09T01:38:36;96719.66;;;13.21;98.69
34328;BME280;20588;48.840;10.064;2023-05-09T01:41:04;96717.81;;;13.10;99.21
34328;BME280;20588;48.840;10.064;2023-05-09T01:43:33;96709.59;;;13.02;100.00
34328;BME280;20588;48.840;10.064;2023-05-09T01:46:00;96720.06;;;13.07;100.00
34328;BME280;20588;48.840;10.064;2023-05-09T01:48:27;96714.31;;;13.05;100.00
34328;BME280;20588;48.840;10.064;2023-05-09T01:50:57;96706.09;;;12.96;100.00
34328;BME280;20588;48.840;10.064;2023-05-09T01:53:25;96714.94;;;12.89;100.00
34328;BME280;20588;48.840;10.064;2023-05-09T01:55:53;96706.81;;;12.85;100.00
34328;BME280;20588;48.840;10.064;2023-05-09T01:58:21;96703.75;;;12.77;100.00
34328;BME280;20588;48.840;10.064;2023-05-09T02:00:49;96704.78;;;13.05;100.00
34328;BME280;20588;48.840;10.064;2023-05-09T02:03:15;96703.56;;;13.08;100.00
34328;BME280;20588;48.840;10.064;2023-05-09T02:05:42;96705.25;;;13.14;100.00
34328;BME280;20588;48.840;10.064;2023-05-09T02:08:09;96704.22;;;13.15;100.00
34328;BME280;20588;48.840;10.064;2023-05-09T02:10:36;96698.81;;;13.05;100.00
34328;BME280;20588;48.840;10.064;2023-05-09T02:13:03;96701.69;;;12.97;100.00
34328;BME280;20588;48.840;10.064;2023-05-09T02:15:29;96703.09;;;13.11;100.00
34328;BME280;20588;48.840;10.064;2023-05-09T02:17:56;96704.66;;;13.00;100.00
34328;BME280;20588;48.840;10.064;2023-05-09T02:20:22;96696.03;;;13.06;100.00
34328;BME280;20588;48.840;10.064;2023-05-09T02:22:48;96709.28;;;13.10;100.00
34328;BME280;20588;48.840;10.064;2023-05-09T02:25:16;96706.81;;;13.15;100.00
34328;BME280;20588;48.840;10.064;2023-05-09T02:27:45;96708.88;;;13.24;100.00
34328;BME280;20588;48.840;10.064;2023-05-09T02:30:18;96711.69;;;13.23;100.00
34328;BME280;20588;48.840;10.064;2023-05-09T02:32:48;96704.69;;;13.12;100.00
34328;BME280;20588;48.840;10.064;2023-05-09T02:35:17;96701.22;;;13.18;100.00
34328;BME280;20588;48.840;10.064;2023-05-09T02:37:44;96700.00;;;13.20;100.00
34328;BME280;20588;48.840;10.064;2023-05-09T02:40:11;96710.63;;;13.01;100.00
34328;BME280;20588;48.840;10.064;2023-05-09T02:42:38;96713.88;;;13.08;100.00
34328;BME280;20588;48.840;10.064;2023-05-09T02:45:05;96707.75;;;13.20;100.00
34328;BME280;20588;48.840;10.064;2023-05-09T02:47:32;96701.31;;;13.11;100.00
34328;BME280;20588;48.840;10.064;2023-05-09T02:49:58;96707.03;;;13.13;100.00
34328;BME280;20588;48.840;10.064;2023-05-09T02:52:24;96702.06;;;13.00;100.00
34328;BME280;20588;48.840;10.064;2023-05-09T02:54:50;96704.00;;;12.87;100.00
34328;BME280;20588;48.840;10.064;2023-05-09T02:57:16;96706.03;;;12.85;100.00
34328;BME280;20588;48.840;10.064;2023-05-09T02:59:42;96707.72;;;12.91;100.00
34328;BME280;20588;48.840;10.064;2023-05-09T03:02:08;96699.50;;;12.82;100.00
34328;BME280;20588;48.840;10.064;2023-05-09T03:04:34;96698.63;;;12.88;100.00
34328;BME280;20588;48.840;10.064;2023-05-09T03:07:00;96699.72;;;12.81;100.00
34328;BME280;20588;48.840;10.064;2023-05-09T03:09:26;96699.81;;;12.74;100.00
34328;BME280;20588;48.840;10.064;2023-05-09T03:11:53;96701.25;;;12.70;100.00
34328;BME280;20588;48.840;10.064;2023-05-09T03:14:19;96689.19;;;12.82;98.72
34328;BME280;20588;48.840;10.064;2023-05-09T03:16:45;96685.03;;;12.81;97.44
34328;BME280;20588;48.840;10.064;2023-05-09T03:19:11;96694.97;;;12.66;97.77
34328;BME280;20588;48.840;10.064;2023-05-09T03:21:37;96694.03;;;12.60;98.16
34328;BME280;20588;48.840;10.064;2023-05-09T03:24:03;96696.72;;;12.54;98.71
34328;BME280;20588;48.840;10.064;2023-05-09T03:26:30;96707.09;;;12.47;97.32
34328;BME280;20588;48.840;10.064;2023-05-09T03:28:56;96696.44;;;12.73;92.66
34328;BME280;20588;48.840;10.064;2023-05-09T03:31:22;96686.38;;;12.84;91.84
34328;BME280;20588;48.840;10.064;2023-05-09T03:33:48;96700.81;;;12.73;94.49
34328;BME280;20588;48.840;10.064;2023-05-09T03:36:14;96692.75;;;12.51;97.68
34328;BME280;20588;48.840;10.064;2023-05-09T03:38:40;96695.09;;;12.53;93.00
34328;BME280;20588;48.840;10.064;2023-05-09T03:41:06;96693.34;;;12.35;95.57
34328;BME280;20588;48.840;10.064;2023-05-09T03:43:32;96691.31;;;12.37;92.44
34328;BME280;20588;48.840;10.064;2023-05-09T03:45:58;96693.03;;;12.25;97.38
34328;BME280;20588;48.840;10.064;2023-05-09T03:48:24;96692.56;;;12.17;100.00
34328;BME280;20588;48.840;10.064;2023-05-09T03:50:50;96692.50;;;12.05;100.00
34328;BME280;20588;48.840;10.064;2023-05-09T03:53:16;96694.50;;;12.03;100.00
34328;BME280;20588;48.840;10.064;2023-05-09T03:55:42;96688.84;;;11.95;100.00
34328;BME280;20588;48.840;10.064;2023-05-09T03:58:10;96692.56;;;11.99;100.00
34328;BME280;20588;48.840;10.064;2023-05-09T04:00:36;96691.84;;;11.92;100.00
34328;BME280;20588;48.840;10.064;2023-05-09T04:03:02;96690.47;;;11.89;100.00
34328;BME280;20588;48.840;10.064;2023-05-09T04:05:28;96684.38;;;11.84;100.00
34328;BME280;20588;48.840;10.064;2023-05-09T04:07:55;96675.56;;;11.91;100.00
34328;BME280;20588;48.840;10.064;2023-05-09T04:10:21;96685.59;;;11.81;100.00
34328;BME280;20588;48.840;10.064;2023-05-09T04:12:47;96690.38;;;11.78;100.00
34328;BME280;20588;48.840;10.064;2023-05-09T04:15:13;96685.38;;;11.83;100.00
34328;BME280;20588;48.840;10.064;2023-05-09T04:17:39;96688.81;;;11.77;100.00
34328;BME280;20588;48.840;10.064;2023-05-09T04:20:05;96683.22;;;11.80;100.00
34328;BME280;20588;48.840;10.064;2023-05-09T04:22:33;96687.59;;;11.79;100.00
34328;BME280;20588;48.840;10.064;2023-05-09T04:24:59;96683.09;;;11.93;100.00
34328;BME280;20588;48.840;10.064;2023-05-09T04:27:25;96677.50;;;11.96;100.00
34328;BME280;20588;48.840;10.064;2023-05-09T04:29:52;96676.44;;;12.03;98.98
34328;BME280;20588;48.840;10.064;2023-05-09T04:32:18;96682.94;;;12.06;98.71
34328;BME280;20588;48.840;10.064;2023-05-09T04:34:45;96684.44;;;12.13;91.69
34328;BME280;20588;48.840;10.064;2023-05-09T04:37:11;96676.41;;;12.39;85.52
34328;BME280;20588;48.840;10.064;2023-05-09T04:39:38;96679.34;;;12.43;84.75
34328;BME280;20588;48.840;10.064;2023-05-09T04:42:04;96675.19;;;12.42;87.00
34328;BME280;20588;48.840;10.064;2023-05-09T04:44:30;96677.25;;;12.51;83.48
34328;BME280;20588;48.840;10.064;2023-05-09T04:46:57;96668.13;;;12.67;82.17
34328;BME280;20588;48.840;10.064;2023-05-09T04:49:23;96665.94;;;12.82;79.58
34328;BME280;20588;48.840;10.064;2023-05-09T04:51:50;96661.78;;;12.81;79.74
34328;BME280;20588;48.840;10.064;2023-05-09T04:54:16;96664.69;;;12.85;78.60
34328;BME280;20588;48.840;10.064;2023-05-09T04:56:42;96671.56;;;12.91;79.18
34328;BME280;20588;48.840;10.064;2023-05-09T04:59:08;96666.31;;;12.97;77.19
34328;BME280;20588;48.840;10.064;2023-05-09T05:01:34;96665.19;;;12.93;78.69
34328;BME280;20588;48.840;10.064;2023-05-09T05:04:00;96659.31;;;13.16;78.52
34328;BME280;20588;48.840;10.064;2023-05-09T05:06:26;96663.94;;;13.25;77.64
34328;BME280;20588;48.840;10.064;2023-05-09T05:08:52;96664.41;;;13.34;77.24
34328;BME280;20588;48.840;10.064;2023-05-09T05:11:18;96669.00;;;13.20;78.86
34328;BME280;20588;48.840;10.064;2023-05-09T05:13:45;96665.72;;;13.25;80.64
34328;BME280;20588;48.840;10.064;2023-05-09T05:16:11;96670.19;;;13.18;79.84
34328;BME280;20588;48.840;10.064;2023-05-09T05:18:37;96666.09;;;13.40;75.71
34328;BME280;20588;48.840;10.064;2023-05-09T05:21:03;96666.66;;;13.42;77.40
34328;BME280;20588;48.840;10.064;2023-05-09T05:23:29;96661.16;;;13.50;77.75
34328;BME280;20588;48.840;10.064;2023-05-09T05:25:55;96669.25;;;13.65;77.46
34328;BME280;20588;48.840;10.064;2023-05-09T05:28:21;96656.44;;;13.58;75.65
34328;BME280;20588;48.840;10.064;2023-05-09T05:30:48;96676.78;;;13.55;76.76
34328;BME280;20588;48.840;10.064;2023-05-09T05:33:14;96668.00;;;13.56;78.82
34328;BME280;20588;48.840;10.064;2023-05-09T05:35:40;96677.47;;;13.73;75.65
34328;BME280;20588;48.840;10.064;2023-05-09T05:38:06;96672.19;;;13.68;75.44
34328;BME280;20588;48.840;10.064;2023-05-09T05:40:32;96676.78;;;13.89;73.48
34328;BME280;20588;48.840;10.064;2023-05-09T05:42:58;96674.88;;;13.85;71.05
34328;BME280;20588;48.840;10.064;2023-05-09T05:45:24;96671.63;;;13.78;71.96
34328;BME280;20588;48.840;10.064;2023-05-09T05:47:50;96670.47;;;13.74;72.65
34328;BME280;20588;48.840;10.064;2023-05-09T05:50:16;96670.59;;;13.79;74.75
34328;BME280;20588;48.840;10.064;2023-05-09T05:52:43;96666.78;;;13.93;74.23
34328;BME280;20588;48.840;10.064;2023-05-09T05:55:09;96677.78;;;13.77;74.92
34328;BME280;20588;48.840;10.064;2023-05-09T05:57:35;96674.28;;;13.83;72.91
34328;BME280;20588;48.840;10.064;2023-05-09T06:00:02;96663.94;;;14.06;77.22
34328;BME280;20588;48.840;10.064;2023-05-09T06:02:31;96664.66;;;15.96;66.47
34328;BME280;20588;48.840;10.064;2023-05-09T06:04:57;96657.03;;;18.69;56.56
34328;BME280;20588;48.840;10.064;2023-05-09T06:07:23;96662.69;;;20.47;48.70
34328;BME280;20588;48.840;10.064;2023-05-09T06:09:49;96658.53;;;22.19;46.92
34328;BME280;20588;48.840;10.064;2023-05-09T06:12:15;96653.19;;;22.89;43.22
34328;BME280;20588;48.840;10.064;2023-05-09T06:14:42;96649.38;;;24.37;41.32
34328;BME280;20588;48.840;10.064;2023-05-09T06:17:08;96644.91;;;25.97;38.36
34328;BME280;20588;48.840;10.064;2023-05-09T06:19:34;96637.69;;;27.53;36.98
34328;BME280;20588;48.840;10.064;2023-05-09T06:22:00;96634.47;;;28.31;35.14
34328;BME280;20588;48.840;10.064;2023-05-09T06:24:26;96635.47;;;29.17;33.80
34328;BME280;20588;48.840;10.064;2023-05-09T06:26:52;96636.91;;;29.68;32.18
34328;BME280;20588;48.840;10.064;2023-05-09T06:29:18;96636.06;;;29.23;33.41
34328;BME280;20588;48.840;10.064;2023-05-09T06:31:44;96631.28;;;28.96;32.55
34328;BME280;20588;48.840;10.064;2023-05-09T06:34:10;96625.06;;;29.65;33.26
34328;BME280;20588;48.840;10.064;2023-05-09T06:36:36;96626.53;;;29.87;33.30
34328;BME280;20588;48.840;10.064;2023-05-09T06:39:02;96621.84;;;28.86;33.86
34328;BME280;20588;48.840;10.064;2023-05-09T06:41:29;96621.34;;;28.14;34.05
34328;BME280;20588;48.840;10.064;2023-05-09T06:43:55;96612.81;;;26.52;34.57
34328;BME280;20588;48.840;10.064;2023-05-09T06:46:21;96617.94;;;24.32;38.44
34328;BME280;20588;48.840;10.064;2023-05-09T06:48:47;96615.53;;;22.99;39.99
34328;BME280;20588;48.840;10.064;2023-05-09T06:51:13;96618.06;;;22.01;42.61
34328;BME280;20588;48.840;10.064;2023-05-09T06:53:39;96618.78;;;20.44;45.67
34328;BME280;20588;48.840;10.064;2023-05-09T06:56:06;96612.03;;;20.33;47.28
34328;BME280;20588;48.840;10.064;2023-05-09T06:58:32;96604.41;;;18.92;49.36
34328;BME280;20588;48.840;10.064;2023-05-09T07:00:58;96602.53;;;18.58;52.22
34328;BME280;20588;48.840;10.064;2023-05-09T07:03:24;96593.69;;;18.54;52.18
34328;BME280;20588;48.840;10.064;2023-05-09T07:05:50;96597.59;;;18.66;52.54
34328;BME280;20588;48.840;10.064;2023-05-09T07:08:17;96598.63;;;18.75;52.88
34328;BME280;20588;48.840;10.064;2023-05-09T07:10:43;96589.28;;;18.79;52.75
34328;BME280;20588;48.840;10.064;2023-05-09T07:13:09;96586.66;;;18.99;52.45
34328;BME280;20588;48.840;10.064;2023-05-09T07:15:35;96582.00;;;19.36;52.00
34328;BME280;20588;48.840;10.064;2023-05-09T07:18:01;96588.16;;;19.76;50.29
34328;BME280;20588;48.840;10.064;2023-05-09T07:20:27;96584.34;;;19.38;51.05
34328;BME280;20588;48.840;10.064;2023-05-09T07:22:53;96591.31;;;19.78;50.51
34328;BME280;20588;48.840;10.064;2023-05-09T07:25:19;96584.06;;;20.33;49.24
34328;BME280;20588;48.840;10.064;2023-05-09T07:27:45;96569.38;;;21.14;48.00
34328;BME280;20588;48.840;10.064;2023-05-09T07:30:12;96570.72;;;21.40;46.18
34328;BME280;20588;48.840;10.064;2023-05-09T07:32:38;96555.91;;;22.07;44.63
34328;BME280;20588;48.840;10.064;2023-05-09T07:35:04;96551.38;;;21.65;44.48
34328;BME280;20588;48.840;10.064;2023-05-09T07:37:30;96551.94;;;22.09;44.74
34328;BME280;20588;48.840;10.064;2023-05-09T07:39:57;96542.31;;;21.53;44.50
34328;BME280;20588;48.840;10.064;2023-05-09T07:42:23;96545.38;;;21.88;45.20
34328;BME280;20588;48.840;10.064;2023-05-09T07:44:49;96539.47;;;23.07;44.17
34328;BME280;20588;48.840;10.064;2023-05-09T07:47:15;96539.59;;;24.29;42.38
34328;BME280;20588;48.840;10.064;2023-05-09T07:49:41;96541.91;;;24.17;40.06
34328;BME280;20588;48.840;10.064;2023-05-09T07:52:08;96538.91;;;24.59;40.40
34328;BME280;20588;48.840;10.064;2023-05-09T07:54:34;96539.09;;;25.07;40.56
34328;BME280;20588;48.840;10.064;2023-05-09T07:57:00;96530.06;;;25.91;39.68
34328;BME280;20588;48.840;10.064;2023-05-09T07:59:26;96528.91;;;26.48;37.83
34328;BME280;20588;48.840;10.064;2023-05-09T08:01:52;96524.41;;;26.58;37.81
34328;BME280;20588;48.840;10.064;2023-05-09T08:04:18;96525.19;;;26.75;36.52
34328;BME280;20588;48.840;10.064;2023-05-09T08:06:44;96525.75;;;27.32;36.50
34328;BME280;20588;48.840;10.064;2023-05-09T08:09:10;96517.22;;;27.64;34.73
34328;BME280;20588;48.840;10.064;2023-05-09T08:11:36;96510.22;;;27.97;34.51
34328;BME280;20588;48.840;10.064;2023-05-09T08:14:03;96510.44;;;27.83;34.42
34328;BME280;20588;48.840;10.064;2023-05-09T08:16:29;96506.28;;;27.74;34.48
34328;BME280;20588;48.840;10.064;2023-05-09T08:18:55;96507.59;;;27.97;32.94
34328;BME280;20588;48.840;10.064;2023-05-09T08:21:21;96508.19;;;28.44;35.86
34328;BME280;20588;48.840;10.064;2023-05-09T08:23:47;96498.13;;;27.87;33.67
34328;BME280;20588;48.840;10.064;2023-05-09T08:26:13;96494.50;;;28.62;34.38
34328;BME280;20588;48.840;10.064;2023-05-09T08:28:40;96485.47;;;28.43;33.36
34328;BME280;20588;48.840;10.064;2023-05-09T08:31:06;96482.53;;;27.86;34.40
34328;BME280;20588;48.840;10.064;2023-05-09T08:33:32;96474.50;;;26.99;34.75
34328;BME280;20588;48.840;10.064;2023-05-09T08:35:58;96473.56;;;28.07;34.84
34328;BME280;20588;48.840;10.064;2023-05-09T08:38:24;96478.25;;;28.52;34.06
34328;BME280;20588;48.840;10.064;2023-05-09T08:40:50;96470.25;;;28.31;34.28
34328;BME280;20588;48.840;10.064;2023-05-09T08:43:16;96469.94;;;27.91;34.07
34328;BME280;20588;48.840;10.064;2023-05-09T08:45:53;96463.41;;;28.71;33.96
34328;BME280;20588;48.840;10.064;2023-05-09T08:48:20;96461.28;;;28.24;31.92
34328;BME280;20588;48.840;10.064;2023-05-09T08:50:47;96454.06;;;27.83;32.06
34328;BME280;20588;48.840;10.064;2023-05-09T08:53:14;96457.88;;;28.64;32.97
34328;BME280;20588;48.840;10.064;2023-05-09T08:55:40;96455.56;;;29.07;34.13
34328;BME280;20588;48.840;10.064;2023-05-09T08:58:07;96447.31;;;29.21;33.67
34328;BME280;20588;48.840;10.064;2023-05-09T09:00:35;96446.66;;;29.72;32.91
34328;BME280;20588;48.840;10.064;2023-05-09T09:03:02;96449.84;;;30.41;32.03
34328;BME280;20588;48.840;10.064;2023-05-09T09:05:35;96448.75;;;30.42;31.63
34328;BME280;20588;48.840;10.064;2023-05-09T09:08:03;96442.84;;;30.49;30.39
34328;BME280;20588;48.840;10.064;2023-05-09T09:10:31;96440.88;;;30.61;31.87
34328;BME280;20588;48.840;10.064;2023-05-09T09:12:59;96441.88;;;31.12;30.30
34328;BME280;20588;48.840;10.064;2023-05-09T09:15:28;96424.00;;;30.26;29.46
34328;BME280;20588;48.840;10.064;2023-05-09T09:17:56;96418.16;;;30.09;30.04
34328;BME280;20588;48.840;10.064;2023-05-09T09:20:26;96416.69;;;29.84;32.96
34328;BME280;20588;48.840;10.064;2023-05-09T09:22:59;96414.13;;;29.51;31.29
34328;BME280;20588;48.840;10.064;2023-05-09T09:25:28;96419.97;;;29.93;30.95
34328;BME280;20588;48.840;10.064;2023-05-09T09:27:54;96413.69;;;29.61;30.97
34328;BME280;20588;48.840;10.064;2023-05-09T09:30:23;96404.78;;;29.65;29.69
34328;BME280;20588;48.840;10.064;2023-05-09T09:32:49;96402.22;;;29.09;29.95
34328;BME280;20588;48.840;10.064;2023-05-09T09:35:16;96401.13;;;29.46;31.95
34328;BME280;20588;48.840;10.064;2023-05-09T09:37:42;96402.75;;;29.87;31.25
34328;BME280;20588;48.840;10.064;2023-05-09T09:40:10;96397.09;;;29.04;30.73
34328;BME280;20588;48.840;10.064;2023-05-09T09:42:44;96383.56;;;28.73;31.18
34328;BME280;20588;48.840;10.064;2023-05-09T09:45:12;96373.25;;;27.94;32.42
34328;BME280;20588;48.840;10.064;2023-05-09T09:47:39;96368.72;;;27.94;32.33
34328;BME280;20588;48.840;10.064;2023-05-09T09:50:13;96365.84;;;28.20;31.42
34328;BME280;20588;48.840;10.064;2023-05-09T09:52:52;96363.44;;;27.45;32.41
34328;BME280;20588;48.840;10.064;2023-05-09T09:55:19;96364.00;;;27.30;34.05
34328;BME280;20588;48.840;10.064;2023-05-09T09:57:46;96362.47;;;27.49;34.47
34328;BME280;20588;48.840;10.064;2023-05-09T10:00:14;96351.75;;;28.28;32.49
34328;BME280;20588;48.840;10.064;2023-05-09T10:05:27;96339.53;;;29.40;32.26
34328;BME280;20588;48.840;10.064;2023-05-09T10:07:55;96339.72;;;29.59;32.54
34328;BME280;20588;48.840;10.064;2023-05-09T10:10:32;96339.28;;;29.57;32.83
34328;BME280;20588;48.840;10.064;2023-05-09T10:13:01;96337.13;;;29.87;31.38
34328;BME280;20588;48.840;10.064;2023-05-09T10:15:29;96339.94;;;30.34;32.40
34328;BME280;20588;48.840;10.064;2023-05-09T10:17:58;96338.94;;;30.54;30.87
34328;BME280;20588;48.840;10.064;2023-05-09T10:20:27;96328.31;;;30.69;31.14
34328;BME280;20588;48.840;10.064;2023-05-09T10:22:58;96325.91;;;30.49;28.13
34328;BME280;20588;48.840;10.064;2023-05-09T10:25:47;96317.88;;;29.14;29.57
34328;BME280;20588;48.840;10.064;2023-05-09T10:28:20;96321.56;;;28.08;30.85
34328;BME280;20588;48.840;10.064;2023-05-09T10:30:58;96307.84;;;28.27;32.02
34328;BME280;20588;48.840;10.064;2023-05-09T10:33:32;96307.81;;;28.15;30.80
34328;BME280;20588;48.840;10.064;2023-05-09T10:36:00;96308.19;;;28.38;30.74
34328;BME280;20588;48.840;10.064;2023-05-09T10:38:29;96315.41;;;27.43;31.02
34328;BME280;20588;48.840;10.064;2023-05-09T10:40:56;96305.72;;;26.89;31.32
34328;BME280;20588;48.840;10.064;2023-05-09T10:43:22;96294.94;;;27.31;31.42
34328;BME280;20588;48.840;10.064;2023-05-09T10:45:50;96299.66;;;27.67;31.90
34328;BME280;20588;48.840;10.064;2023-05-09T10:48:17;96288.94;;;27.63;31.16
34328;BME280;20588;48.840;10.064;2023-05-09T10:50:44;96284.38;;;27.52;32.26
34328;BME280;20588;48.840;10.064;2023-05-09T10:53:11;96284.91;;;27.78;32.41
34328;BME280;20588;48.840;10.064;2023-05-09T10:58:19;96285.34;;;26.89;34.12
34328;BME280;20588;48.840;10.064;2023-05-09T11:00:50;96274.88;;;27.01;33.97
34328;BME280;20588;48.840;10.064;2023-05-09T11:03:16;96268.94;;;27.54;34.41
34328;BME280;20588;48.840;10.064;2023-05-09T11:05:48;96268.16;;;27.74;32.86
34328;BME280;20588;48.840;10.064;2023-05-09T11:10:46;96263.66;;;26.75;32.95
34328;BME280;20588;48.840;10.064;2023-05-09T11:13:12;96249.06;;;26.78;33.99
34328;BME280;20588;48.840;10.064;2023-05-09T11:18:26;96241.22;;;27.92;33.62
34328;BME280;20588;48.840;10.064;2023-05-09T11:20:52;96236.00;;;28.29;32.53
34328;BME280;20588;48.840;10.064;2023-05-09T11:23:19;96234.22;;;28.33;33.89
34328;BME280;20588;48.840;10.064;2023-05-09T11:25:47;96239.84;;;28.19;33.02
34328;BME280;20588;48.840;10.064;2023-05-09T11:28:30;96226.19;;;28.41;34.66
34328;BME280;20588;48.840;10.064;2023-05-09T11:31:17;96227.53;;;27.90;33.78
34328;BME280;20588;48.840;10.064;2023-05-09T11:33:45;96216.69;;;27.83;33.89
34328;BME280;20588;48.840;10.064;2023-05-09T11:36:41;96215.16;;;27.50;34.42
34328;BME280;20588;48.840;10.064;2023-05-09T11:39:09;96209.09;;;27.82;34.08
34328;BME280;20588;48.840;10.064;2023-05-09T11:44:13;96194.19;;;27.77;34.57
34328;BME280;20588;48.840;10.064;2023-05-09T11:46:39;96189.00;;;27.81;34.77
34328;BME280;20588;48.840;10.064;2023-05-09T11:49:06;96185.16;;;28.23;34.56
34328;BME280;20588;48.840;10.064;2023-05-09T11:51:35;96186.78;;;27.71;35.21
34328;BME280;20588;48.840;10.064;2023-05-09T11:54:05;96184.78;;;27.88;35.88
34328;BME280;20588;48.840;10.064;2023-05-09T11:56:36;96178.63;;;28.21;35.71
34328;BME280;20588;48.840;10.064;2023-05-09T11:59:03;96179.94;;;27.17;36.30
34328;BME280;20588;48.840;10.064;2023-05-09T12:01:29;96177.56;;;26.54;38.10
34328;BME280;20588;48.840;10.064;2023-05-09T12:03:57;96171.03;;;26.80;37.26
34328;BME280;20588;48.840;10.064;2023-05-09T12:06:24;96162.53;;;26.75;37.30
34328;BME280;20588;48.840;10.064;2023-05-09T12:08:53;96169.22;;;26.72;38.36
34328;BME280;20588;48.840;10.064;2023-05-09T12:11:19;96164.00;;;25.80;38.92
34328;BME280;20588;48.840;10.064;2023-05-09T12:13:50;96161.00;;;26.36;39.36
34328;BME280;20588;48.840;10.064;2023-05-09T12:16:18;96159.09;;;26.74;38.93
34328;BME280;20588;48.840;10.064;2023-05-09T12:18:49;96148.44;;;27.32;38.59
34328;BME280;20588;48.840;10.064;2023-05-09T12:21:16;96145.03;;;27.44;38.61
34328;BME280;20588;48.840;10.064;2023-05-09T12:23:42;96149.94;;;27.13;38.00
34328;BME280;20588;48.840;10.064;2023-05-09T12:26:09;96146.81;;;26.99;38.44
34328;BME280;20588;48.840;10.064;2023-05-09T12:28:36;96134.31;;;26.67;38.70
34328;BME280;20588;48.840;10.064;2023-05-09T12:31:02;96127.34;;;26.83;39.10
34328;BME280;20588;48.840;10.064;2023-05-09T12:33:29;96128.25;;;26.66;39.17
34328;BME280;20588;48.840;10.064;2023-05-09T12:38:30;96115.97;;;27.23;39.93
34328;BME280;20588;48.840;10.064;2023-05-09T12:41:04;96113.28;;;26.91;39.56
34328;BME280;20588;48.840;10.064;2023-05-09T12:43:32;96105.50;;;26.74;38.81
34328;BME280;20588;48.840;10.064;2023-05-09T12:45:59;96100.38;;;27.10;38.75
34328;BME280;20588;48.840;10.064;2023-05-09T12:48:27;96095.34;;;27.49;37.77
34328;BME280;20588;48.840;10.064;2023-05-09T12:50:53;96090.50;;;27.96;37.64
34328;BME280;20588;48.840;10.064;2023-05-09T12:53:26;96092.13;;;28.25;37.49
34328;BME280;20588;48.840;10.064;2023-05-09T12:56:01;96089.38;;;28.09;37.80
34328;BME280;20588;48.840;10.064;2023-05-09T12:58:32;96085.75;;;28.01;38.19
34328;BME280;20588;48.840;10.064;2023-05-09T13:01:01;96078.19;;;27.67;39.05
34328;BME280;20588;48.840;10.064;2023-05-09T13:03:29;96070.16;;;27.64;39.89
34328;BME280;20588;48.840;10.064;2023-05-09T13:06:03;96065.72;;;27.44;38.20
34328;BME280;20588;48.840;10.064;2023-05-09T13:08:30;96068.63;;;26.98;40.41
34328;BME280;20588;48.840;10.064;2023-05-09T13:10:57;96075.94;;;26.80;40.07
34328;BME280;20588;48.840;10.064;2023-05-09T13:13:26;96061.47;;;26.57;39.89